createdAt,value
2018-11-07T00:01:32.946Z,20.37
2018-11-07T00:06:51.466Z,11.97
2018-11-07T00:12:10.168Z,18.92
2018-11-07T00:17:28.662Z,14.13
2018-11-07T00:22:47.227Z,12.90
2018-11-07T00:28:05.791Z,14.50
2018-11-07T00:33:24.639Z,13.43
2018-11-07T00:38:43.135Z,19.10
2018-11-07T00:44:01.667Z,14.23
2018-11-07T00:49:20.163Z,12.47
2018-11-07T00:54:38.806Z,14.13
2018-11-07T00:59:57.327Z,12.53
2018-11-07T01:05:15.942Z,13.00
2018-11-07T01:10:34.451Z,16.03
2018-11-07T01:15:52.968Z,12.70
2018-11-07T01:21:11.520Z,13.43
2018-11-07T01:26:30.268Z,10.40
2018-11-07T01:31:48.788Z,10.43
2018-11-07T01:37:07.313Z,13.10
2018-11-07T01:42:26.011Z,13.47
2018-11-07T01:47:44.547Z,13.43
2018-11-07T01:53:03.031Z,10.47
2018-11-07T01:58:21.584Z,12.53
2018-11-07T02:03:40.126Z,16.20
2018-11-07T02:08:58.699Z,14.00
2018-11-07T02:14:17.255Z,14.63
2018-11-07T02:19:36.311Z,14.37
2018-11-07T02:24:54.850Z,13.83
2018-11-07T02:30:15.227Z,12.90
2018-11-07T02:35:33.747Z,14.27
2018-11-07T02:40:52.295Z,11.57
2018-11-07T02:46:10.836Z,11.37
2018-11-07T02:51:29.348Z,14.50
2018-11-07T02:56:47.881Z,11.95
2018-11-07T03:02:06.494Z,12.67
2018-11-07T03:07:25.222Z,11.18
2018-11-07T03:12:43.728Z,16.57
2018-11-07T03:18:02.287Z,14.33
2018-11-07T03:23:20.871Z,11.97
2018-11-07T03:28:39.519Z,12.77
2018-11-07T03:33:58.059Z,8.73
2018-11-07T03:39:16.563Z,12.63
2018-11-07T03:44:35.058Z,13.00
2018-11-07T03:49:53.574Z,9.03
2018-11-07T03:55:12.064Z,11.80
2018-11-07T04:00:30.563Z,12.23
2018-11-07T04:05:49.046Z,13.80
2018-11-07T04:11:07.573Z,11.90
2018-11-07T04:16:32.797Z,12.30
2018-11-07T04:21:51.350Z,11.10
2018-11-07T04:27:09.832Z,13.63
2018-11-07T04:32:28.402Z,12.00
2018-11-07T04:37:46.945Z,13.48
2018-11-07T04:43:05.834Z,13.53
2018-11-07T04:48:24.395Z,10.20
2018-11-07T04:53:42.931Z,11.00
2018-11-07T04:59:01.584Z,12.23
2018-11-07T05:04:20.142Z,12.70
2018-11-07T05:09:38.730Z,13.10
2018-11-07T05:14:57.251Z,11.30
2018-11-07T05:20:15.782Z,9.40
2018-11-07T05:25:34.270Z,10.50
2018-11-07T05:30:52.783Z,8.60
2018-11-07T05:36:11.804Z,7.43
2018-11-07T05:41:30.493Z,9.30
2018-11-07T05:46:48.970Z,9.93
2018-11-07T05:52:07.539Z,11.80
2018-11-07T05:57:26.031Z,10.13
2018-11-07T06:02:44.544Z,6.73
2018-11-07T06:08:03.025Z,13.37
2018-11-07T06:13:21.580Z,12.40
2018-11-07T06:18:40.082Z,7.87
2018-11-07T06:23:58.552Z,8.65
2018-11-07T06:29:17.040Z,7.07
2018-11-07T06:34:35.688Z,5.93
2018-11-07T06:39:54.223Z,5.90
2018-11-07T06:45:12.686Z,7.22
2018-11-07T06:50:31.181Z,5.70
2018-11-07T06:55:49.855Z,7.72
2018-11-07T07:01:08.356Z,4.77
2018-11-07T07:06:26.828Z,7.47
2018-11-07T07:11:45.351Z,6.70
2018-11-07T07:17:03.882Z,8.00
2018-11-07T07:22:22.390Z,6.83
2018-11-07T07:27:41.530Z,7.03
2018-11-07T07:33:00.100Z,6.80
2018-11-07T07:38:18.642Z,6.73
2018-11-07T07:43:37.131Z,4.70
2018-11-07T07:48:55.655Z,9.10
2018-11-07T07:54:14.167Z,6.27
2018-11-07T07:59:32.731Z,6.30
2018-11-07T08:04:51.290Z,6.73
2018-11-07T08:10:12.478Z,12.07
2018-11-07T08:15:31.042Z,3.50
2018-11-07T08:20:49.566Z,3.43
2018-11-07T08:26:08.087Z,6.17
2018-11-07T08:31:26.592Z,5.00
2018-11-07T08:36:45.361Z,4.83
2018-11-07T08:42:03.889Z,5.43
2018-11-07T08:47:22.553Z,4.43
2018-11-07T08:52:41.112Z,6.90
2018-11-07T08:58:01.632Z,4.77
2018-11-07T09:03:20.340Z,4.20
2018-11-07T09:08:38.917Z,3.13
2018-11-07T09:13:57.465Z,4.93
2018-11-07T09:19:16.010Z,7.23
2018-11-07T09:24:34.762Z,3.23
2018-11-07T09:29:53.281Z,5.43
2018-11-07T09:35:12.376Z,3.90
2018-11-07T09:40:31.008Z,8.33
2018-11-07T09:45:49.539Z,3.73
2018-11-07T09:51:08.050Z,3.23
2018-11-07T09:56:26.568Z,3.73
2018-11-07T10:01:45.083Z,4.10
2018-11-07T10:07:03.639Z,3.40
2018-11-07T10:12:22.189Z,5.50
2018-11-07T10:17:40.692Z,3.20
2018-11-07T10:22:59.216Z,3.50
2018-11-07T10:28:17.850Z,5.10
2018-11-07T10:33:36.310Z,3.23
2018-11-07T10:38:54.859Z,2.30
2018-11-07T10:44:13.410Z,4.10
2018-11-07T10:49:31.933Z,5.40
2018-11-07T10:54:50.556Z,6.43
2018-11-07T11:00:17.601Z,2.83
2018-11-07T11:05:36.404Z,1.97
2018-11-07T11:10:55.227Z,1.80
2018-11-07T11:16:13.735Z,1.70
2018-11-07T11:21:32.240Z,4.07
2018-11-07T11:26:54.647Z,3.73
2018-11-07T11:32:13.221Z,3.47
2018-11-07T11:37:31.754Z,3.00
2018-11-07T11:42:50.590Z,2.97
2018-11-07T11:48:09.157Z,1.60
2018-11-07T11:53:27.692Z,2.13
2018-11-07T11:58:46.242Z,2.37
2018-11-07T12:04:04.778Z,3.17
2018-11-07T12:09:23.296Z,1.60
2018-11-07T12:14:41.812Z,2.53
2018-11-07T12:20:00.335Z,3.63
2018-11-07T12:25:19.682Z,4.05
2018-11-07T12:30:38.196Z,2.07
2018-11-07T12:35:56.887Z,2.77
2018-11-07T12:41:15.400Z,2.13
2018-11-07T12:46:34.866Z,4.37
2018-11-07T12:51:53.491Z,1.40
2018-11-07T12:57:12.160Z,5.40
2018-11-07T13:02:31.319Z,2.70
2018-11-07T13:07:50.462Z,4.10
2018-11-07T13:13:09.020Z,3.40
2018-11-07T13:18:27.620Z,2.17
2018-11-07T13:23:46.540Z,5.67
2018-11-07T13:29:05.038Z,3.30
2018-11-07T13:34:23.607Z,2.43
2018-11-07T13:39:42.161Z,2.83
2018-11-07T13:45:00.633Z,5.00
2018-11-07T13:50:19.470Z,2.62
2018-11-07T13:55:37.966Z,23.17
2018-11-07T14:00:56.519Z,5.33
2018-11-07T14:06:15.096Z,2.90
2018-11-07T14:11:33.723Z,2.43
2018-11-07T14:16:52.366Z,3.83
2018-11-07T14:22:10.867Z,4.37
2018-11-07T14:27:29.476Z,5.10
2018-11-07T14:32:52.962Z,3.90
2018-11-07T14:38:11.643Z,3.77
2018-11-07T14:43:30.159Z,3.57
2018-11-07T14:48:48.625Z,3.30
2018-11-07T14:54:07.222Z,2.50
2018-11-07T14:59:25.867Z,4.50
2018-11-07T15:04:44.422Z,9.37
2018-11-07T15:10:02.999Z,3.57
2018-11-07T15:15:21.646Z,6.50
2018-11-07T15:20:40.166Z,3.07
2018-11-07T15:25:58.711Z,4.00
2018-11-07T15:31:17.203Z,2.10
2018-11-07T15:36:36.413Z,3.33
2018-11-07T15:41:55.362Z,5.70
2018-11-07T15:47:13.937Z,2.70
2018-11-07T15:52:32.644Z,4.73
2018-11-07T15:57:51.306Z,5.37
2018-11-07T16:03:09.804Z,5.80
2018-11-07T16:08:28.328Z,3.47
2018-11-07T16:13:47.434Z,3.57
2018-11-07T16:19:06.098Z,2.57
2018-11-07T16:24:24.734Z,4.23
2018-11-07T16:29:43.270Z,3.87
2018-11-07T16:35:02.247Z,2.00
2018-11-07T16:40:21.415Z,7.30
2018-11-07T16:45:39.948Z,3.37
2018-11-07T16:50:58.931Z,3.37
2018-11-07T16:56:17.489Z,3.93
2018-11-07T17:07:39.313Z,4.90
2018-11-07T17:12:57.979Z,6.40
2018-11-07T17:18:16.464Z,7.90
2018-11-07T17:23:35.240Z,2.60
2018-11-07T17:29:02.143Z,10.30
2018-11-07T17:34:21.485Z,5.53
2018-11-07T17:39:40.129Z,4.93
2018-11-07T17:44:58.915Z,3.50
2018-11-07T17:50:18.334Z,9.48
2018-11-07T17:55:36.972Z,4.05
2018-11-07T18:00:55.594Z,5.73
2018-11-07T18:06:14.752Z,5.77
2018-11-07T18:11:33.251Z,4.97
2018-11-07T18:16:51.748Z,6.17
2018-11-07T18:22:10.553Z,5.07
2018-11-07T18:27:29.111Z,4.70
2018-11-07T18:32:48.273Z,5.70
2018-11-07T18:38:07.934Z,6.17
2018-11-07T18:43:26.486Z,5.70
2018-11-07T18:48:44.995Z,5.13
2018-11-07T18:54:03.817Z,3.70
2018-11-07T18:59:22.366Z,3.43
2018-11-07T19:04:40.904Z,3.33
2018-11-07T19:09:59.423Z,4.33
2018-11-07T19:15:18.651Z,2.53
2018-11-07T19:20:37.420Z,4.17
2018-11-07T19:25:56.238Z,1.97
2018-11-07T19:31:15.427Z,2.60
2018-11-07T19:36:35.176Z,4.87
2018-11-07T19:41:53.695Z,4.23
2018-11-07T19:47:12.824Z,3.80
2018-11-07T19:52:32.288Z,4.20
2018-11-07T19:57:53.199Z,4.17
2018-11-07T20:03:13.064Z,4.60
2018-11-07T20:08:31.611Z,2.10
2018-11-07T20:13:50.129Z,5.40
2018-11-07T20:19:09.811Z,5.43
2018-11-07T20:24:28.389Z,4.60
2018-11-07T20:29:46.909Z,2.27
2018-11-07T20:35:07.460Z,4.17
2018-11-07T20:40:26.376Z,2.20
2018-11-07T20:45:45.574Z,4.53
2018-11-07T20:51:04.137Z,3.03
2018-11-07T20:56:23.233Z,5.33
2018-11-07T21:01:41.762Z,3.60
2018-11-07T21:07:00.331Z,4.37
2018-11-07T21:12:19.097Z,4.50
2018-11-07T21:17:37.754Z,3.50
2018-11-07T21:22:56.356Z,3.40
2018-11-07T21:28:15.102Z,2.73
2018-11-07T21:33:35.313Z,2.87
2018-11-07T21:38:53.939Z,5.13
2018-11-07T21:44:12.814Z,3.33
2018-11-07T21:49:31.617Z,3.10
2018-11-07T21:54:50.197Z,2.07
2018-11-07T22:00:12.276Z,2.17
2018-11-07T22:05:30.846Z,5.13
2018-11-07T22:10:49.407Z,4.17
2018-11-07T22:16:09.516Z,3.70
2018-11-07T22:21:28.002Z,5.25
2018-11-07T22:26:46.483Z,4.97
2018-11-07T22:32:05.321Z,4.80
2018-11-07T22:37:23.902Z,3.97
2018-11-07T22:42:42.728Z,2.77
2018-11-07T22:48:01.679Z,6.50
2018-11-07T22:53:20.151Z,3.83
2018-11-07T22:58:38.665Z,2.30
2018-11-07T23:03:57.154Z,3.10
2018-11-07T23:09:15.900Z,2.23
2018-11-07T23:14:34.385Z,4.30
2018-11-07T23:19:52.867Z,3.27
2018-11-07T23:25:11.430Z,2.98
2018-11-07T23:30:30.689Z,6.33
2018-11-07T23:35:49.253Z,3.33
2018-11-07T23:41:07.773Z,4.57
2018-11-07T23:46:26.235Z,5.10
2018-11-07T23:51:49.356Z,4.53
2018-11-07T23:57:07.910Z,5.28
